Ronco, PA (15476)

5:07 AM EDT on October 22, 2014 (GMT -0400)
HillTop Rices Landing | Change Station
CLOSE
Current Station
Personal Weather Station
Location: Rices Landing, PA
Elevation: 1118 ft
Nearby Weather Stations

Elev 1118 ft 39.93 °N, 79.95 °W | Updated 2 seconds ago

Overcast
Overcast
47.5 °F
Feels Like 46 °F
N
4.0
Wind Variable Wind from NW
Gusts 12.0 mph

Today
High -- | Low -- °F
--% Chance of Precip.
Yesterday
High -- | Low -- °F
Precip. -- in
7:37 AM 6:30 PM
Waning Crescent, 2% visible
Pressure 30.05 in
Visibility 6.0 miles
Clouds Overcast 500 ft
Windchill 46 °F
Dew Point 46 °F
Humidity 94%
Rainfall 0.11 in
Snow Depth Not available.
UV 0 out of 12
Pollen .30 out of 12
Air Quality Not available.
Flu Activity Sporadic
METAR KMGW 220853Z AUTO 31004KT 6SM -RA BR OVC005 09/07 A3004 RMK AO2 CIG 003V009 SLP174 P0004 60005 T00890067 53005 TSNO

More Conditions Fewer Conditions

Pressure 30.05 in
Visibility 6.0 miles
Clouds Overcast 500 ft
Windchill 46 °F
Dew Point 46 °F
Humidity 94%
Rainfall 0.11 in
Snow Depth Not available.
UV 0 out of 12
Pollen .30 out of 12
Air Quality Not available.
Flu Activity Sporadic
METAR KMGW 220853Z AUTO 31004KT 6SM -RA BR OVC005 09/07 A3004 RMK AO2 CIG 003V009 SLP174 P0004 60005 T00890067 53005 TSNO

More Conditions Fewer Conditions

10-Day Weather Forecast

Almanac

Astronomy

Oct. 22, 2014 Rise Set
Actual Time 7:37 AM EDT 6:30 PM EDT
Civil Twilight 7:09 AM EDT 6:57 PM EDT
Nautical Twilight 6:38 AM EDT 7:29 PM EDT
Astronomical Twilight 6:07 AM EDT 8:00 PM EDT
Moon 6:17 AM EDT 5:55 PM EDT
Length of Visible Light 11h 47m
Length of Day
10h 52m
Tomorrow will be 2m 26s shorter.
Waning Crescent, 2% of the Moon is Illuminated
Today
Waning Crescent
Oct 23
New
Oct 30
First Quarter
Nov 6
Full
Nov 14
Last Quarter

Today's Extremes

State Highs State Lows

Community

WunderPhotos

Upload Photos

1,763,900 photos uploaded!

Nearby

Snow Depth

Station Depth Elevation
No new snow has been reported.

Earthquake Activity

City Distance Mag. Time & Date
No recent earthquake activity has been reported nearby.
Minimum magnitude displayed is 2.5.

Coastal Water Temperatures

Place Temperature
No Stations Reporting

Nearby Weather Stations